Angelina County Airport
KLFK : rendu visible

Aérodrome :











RETROUVEZ-NOUS SUR...

 
LOGIN :

S'inscrire | Disclaimer

   EN    FR    IT 

 









Légende :    VFR   VFR Marginal   IFR   IFR Intensif   IFR Très Intensif
Visi : 
Plafond : 
>= 8 km
>= 3000ft
5 à 8 km
1000 à 3000 ft
1500m à 5 km
500 à 1000 ft
800 à 1500m
200 à 500 ft
< 800m
< 200 ft
Symboles :   Orages  Brouillard  Fortes neiges  Fortes précipitations  Vent > 20 kt






- Altitude de l'aérodrome : 296 ft


KLFK - Angelina County

DERNIER METAR :
  • 201153Z AUTO 13005KT 6SM BR CLR 12/12 A3004 RMK AO2 SLP170 T01220117 10122 20100 53005 $

METARs EXPIRÉS :
  • 201053Z AUTO 12004KT 4SM BR CLR 12/11 A3002 RMK AO2 SLP164 T01170111 $
  • 201041Z AUTO 12004KT 3SM BR SCT002 12/11 A3002 RMK AO2 T01170106 $
  • 201034Z AUTO 10006KT 3SM BR BKN002 11/10 A3002 RMK AO2 T01060100 $
  • 201019Z AUTO 11004KT 1/4SM FG VV002 11/10 A3003 RMK AO2 T01060100 $
  • 200953Z AUTO 13004KT 1/2SM FG VV002 11/10 A3003 RMK AO2 SLP166 T01060100 $

TAF KLFK
Valide du 20 à 12h jusqu'au 21 à 12h UTC


201120Z 2012/2112 12004KT 4SM BR SKC
TEMPO 2012/2015 1/4SM FG BKN001
FM201500 13012G18KT P6SM SCT250
FM201800 15014G22KT P6SM BKN100
FM202100 15012G18KT P6SM OVC050
FM210300 15011KT P6SM OVC050
FM210600 15010KT P6SM OVC025
FM211000 14009KT P6SM OVC015



MET'MAP, la Météo Aéronautique d'un coup d'oeil ! - Copyright ORBIFLY Décembre 2007 - Disclaimer

ORBIFLY MET'MAP TEAM :

Programmation & Développement : Alexandra Zaïnal
Conception & Développement : Baudouin d'Aumeries
Co-Programmation & Développement : Marc-Olivier Méhu
Soutien technique & logistique : Manuel Goepfert

Contact : metmap@orbifly.com




SOURCES & CREDITS :

   NOAA       Earth
Advisory